Time;durP1;ratioP1;P1;durP2;ratioP2;P2;SDS_P1;SDS_P2;PMS_P1;PMS_P2;Temp;Humidity;BMP_temperature;BMP_pressure;BME280_temperature;BME280_humidity;BME280_pressure;Samples;Min_cycle;Max_cycle;Signal;HPM_P1;HPM_P2
2021/12/19 00:02:03;;;;;;;8.23;4.68;;;;;;;;;;6245934;28;20022;-73
2021/12/19 00:08:46;;;;;;;8.82;4.35;;;;;;;;;;6245765;28;20029;-73
2021/12/19 00:11:46;;;;;;;7.25;4.75;;;;;;;;;;6244171;28;20041;-73
2021/12/19 00:14:46;;;;;;;11.57;5.40;;;;;;;;;;6243216;28;20048;-73
2021/12/19 00:17:47;;;;;;;12.40;6.10;;;;;;;;;;6243767;28;20469;-73
2021/12/19 00:20:47;;;;;;;10.82;5.22;;;;;;;;;;6244339;28;20018;-73
2021/12/19 00:23:49;;;;;;;11.05;5.40;;;;;;;;;;6242869;28;20029;-73
2021/12/19 00:26:49;;;;;;;8.38;5.25;;;;;;;;;;6243586;28;20440;-73
2021/12/19 00:29:49;;;;;;;7.00;4.78;;;;;;;;;;6244125;28;20026;-73
2021/12/19 00:32:50;;;;;;;11.40;4.20;;;;;;;;;;6244059;28;20105;-73
2021/12/19 00:35:50;;;;;;;8.40;4.50;;;;;;;;;;6243320;28;20467;-73
2021/12/19 00:38:50;;;;;;;8.32;4.43;;;;;;;;;;6235565;28;20101;-73
2021/12/19 00:41:52;;;;;;;11.07;4.38;;;;;;;;;;6242385;28;20022;-74
2021/12/19 00:44:53;;;;;;;11.05;4.82;;;;;;;;;;6244161;28;20017;-73
2021/12/19 00:47:53;;;;;;;9.35;4.30;;;;;;;;;;6243222;28;20026;-73
2021/12/19 00:50:53;;;;;;;9.32;4.13;;;;;;;;;;6241649;28;20060;-73
2021/12/19 00:53:54;;;;;;;7.43;3.72;;;;;;;;;;6236968;28;20022;-73
2021/12/19 00:56:55;;;;;;;9.88;4.07;;;;;;;;;;6221094;28;20630;-73
2021/12/19 00:59:55;;;;;;;6.95;3.35;;;;;;;;;;6234037;28;20033;-73
2021/12/19 01:02:58;;;;;;;11.15;4.93;;;;;;;;;;6219112;28;20040;-73
2021/12/19 01:05:59;;;;;;;8.80;3.47;;;;;;;;;;6218443;28;20030;-73
2021/12/19 01:08:59;;;;;;;6.25;2.67;;;;;;;;;;6218595;28;20080;-73
2021/12/19 01:11:59;;;;;;;6.22;3.65;;;;;;;;;;6182369;28;1143394;-74
2021/12/19 01:15:00;;;;;;;10.35;3.85;;;;;;;;;;6218234;28;20026;-73
2021/12/19 01:18:01;;;;;;;6.07;3.45;;;;;;;;;;6228588;28;20018;-73
2021/12/19 01:21:01;;;;;;;19.02;8.10;;;;;;;;;;6243812;28;20022;-73
2021/12/19 01:24:02;;;;;;;11.43;5.50;;;;;;;;;;6244414;28;20022;-73
2021/12/19 01:27:02;;;;;;;11.85;5.10;;;;;;;;;;6237451;28;20388;-73
2021/12/19 01:30:05;;;;;;;10.23;5.35;;;;;;;;;;6234634;28;20176;-73
2021/12/19 01:33:05;;;;;;;8.15;4.50;;;;;;;;;;6233689;28;20025;-73
2021/12/19 01:36:06;;;;;;;12.45;6.32;;;;;;;;;;6220824;28;20382;-73
2021/12/19 01:39:07;;;;;;;10.98;5.97;;;;;;;;;;6222738;28;20434;-73
2021/12/19 01:42:11;;;;;;;10.60;6.75;;;;;;;;;;6243627;28;20429;-73
2021/12/19 01:45:13;;;;;;;13.80;7.55;;;;;;;;;;6242123;28;20481;-73
2021/12/19 01:48:13;;;;;;;16.08;9.63;;;;;;;;;;6243540;28;20830;-73
2021/12/19 01:51:14;;;;;;;21.48;12.43;;;;;;;;;;6243022;28;20021;-73
2021/12/19 01:54:14;;;;;;;23.52;13.18;;;;;;;;;;6243845;28;20075;-73
2021/12/19 01:57:14;;;;;;;18.08;11.85;;;;;;;;;;6242314;28;20369;-73
2021/12/19 02:00:35;;;;;;;25.33;12.75;;;;;;;;;;6233947;28;20512;-73
2021/12/19 02:03:36;;;;;;;21.75;13.52;;;;;;;;;;6233326;28;20021;-74
2021/12/19 02:06:36;;;;;;;20.27;12.10;;;;;;;;;;6216925;28;20040;-73
2021/12/19 02:09:36;;;;;;;29.75;15.45;;;;;;;;;;6220297;28;20534;-73
2021/12/19 02:12:38;;;;;;;17.55;9.75;;;;;;;;;;6243192;28;20048;-73
2021/12/19 02:15:39;;;;;;;24.77;11.80;;;;;;;;;;6242954;28;20233;-74
2021/12/19 02:18:39;;;;;;;16.45;9.75;;;;;;;;;;6242937;28;20057;-73
2021/12/19 02:21:40;;;;;;;19.65;10.18;;;;;;;;;;6242928;28;20022;-73
2021/12/19 02:24:40;;;;;;;25.23;11.30;;;;;;;;;;6243665;28;20092;-74
2021/12/19 02:27:41;;;;;;;14.70;10.05;;;;;;;;;;6242457;28;20508;-74
2021/12/19 02:30:41;;;;;;;18.67;11.68;;;;;;;;;;6243047;28;20029;-73
2021/12/19 02:33:52;;;;;;;25.33;14.50;;;;;;;;;;6242551;28;20393;-74
2021/12/19 02:37:01;;;;;;;23.63;12.50;;;;;;;;;;6230956;28;20022;-73
2021/12/19 02:49:49;;;;;;;27.10;14.13;;;;;;;;;;6242844;28;20477;-73
2021/12/19 02:52:49;;;;;;;31.40;16.52;;;;;;;;;;6243274;28;20028;-74
2021/12/19 02:55:49;;;;;;;27.83;11.10;;;;;;;;;;6242358;28;20025;-74
2021/12/19 02:58:50;;;;;;;25.80;16.65;;;;;;;;;;6242768;28;20021;-74
2021/12/19 03:01:50;;;;;;;29.85;17.02;;;;;;;;;;6242480;28;20531;-74
2021/12/19 03:05:00;;;;;;;23.50;12.32;;;;;;;;;;6242461;28;20097;-73
2021/12/19 03:08:03;;;;;;;30.75;16.23;;;;;;;;;;6242268;28;20490;-73
2021/12/19 03:20:44;;;;;;;29.42;18.25;;;;;;;;;;6247060;28;20029;-74
2021/12/19 03:23:44;;;;;;;30.65;18.40;;;;;;;;;;6245882;28;20461;-74
2021/12/19 03:26:44;;;;;;;39.35;22.25;;;;;;;;;;6246439;28;20488;-74
2021/12/19 03:29:44;;;;;;;43.50;23.27;;;;;;;;;;6246905;28;20025;-74
2021/12/19 03:32:45;;;;;;;42.38;23.02;;;;;;;;;;6244943;28;20029;-73
2021/12/19 03:35:45;;;;;;;45.08;23.20;;;;;;;;;;6246128;28;20389;-73
2021/12/19 03:38:45;;;;;;;35.85;21.33;;;;;;;;;;6237768;28;20141;-74
2021/12/19 03:41:46;;;;;;;34.63;21.25;;;;;;;;;;6246286;28;20025;-74
2021/12/19 03:44:46;;;;;;;35.50;17.52;;;;;;;;;;6236977;28;20112;-74
2021/12/19 03:47:47;;;;;;;31.67;17.33;;;;;;;;;;6221020;28;20049;-74
2021/12/19 03:50:49;;;;;;;32.60;18.30;;;;;;;;;;6233253;28;20096;-74
2021/12/19 03:53:49;;;;;;;38.03;21.42;;;;;;;;;;6246419;28;20028;-74
2021/12/19 03:56:49;;;;;;;36.35;18.50;;;;;;;;;;6245932;28;20029;-74
2021/12/19 03:59:49;;;;;;;39.97;19.45;;;;;;;;;;6246367;28;20022;-74
2021/12/19 04:02:55;;;;;;;30.38;16.23;;;;;;;;;;6244493;28;20540;-74
2021/12/19 04:05:55;;;;;;;41.95;24.58;;;;;;;;;;6245461;28;20029;-74
2021/12/19 04:08:56;;;;;;;38.60;18.83;;;;;;;;;;6245926;28;20033;-74
2021/12/19 04:11:56;;;;;;;34.60;19.60;;;;;;;;;;6243890;28;20100;-73
2021/12/19 04:14:57;;;;;;;31.70;18.83;;;;;;;;;;6234986;28;20030;-73
2021/12/19 04:17:57;;;;;;;29.77;17.08;;;;;;;;;;6229610;28;20025;-73
2021/12/19 04:20:57;;;;;;;24.80;13.95;;;;;;;;;;6245474;28;20018;-73
2021/12/19 04:23:57;;;;;;;22.67;12.30;;;;;;;;;;6243597;28;20025;-74
2021/12/19 04:26:58;;;;;;;29.85;15.65;;;;;;;;;;6244744;28;20021;-74
2021/12/19 04:29:58;;;;;;;26.45;16.25;;;;;;;;;;6243489;28;20014;-74
2021/12/19 04:33:04;;;;;;;28.63;16.45;;;;;;;;;;6245321;28;20068;-74
2021/12/19 04:36:07;;;;;;;28.40;14.10;;;;;;;;;;6243780;28;20025;-74
2021/12/19 04:59:14;;;;;;;34.90;16.13;;;;;;;;;;6244022;28;20803;-74
2021/12/19 05:14:59;;;;;;;39.22;20.75;;;;;;;;;;6244253;28;20033;-74
2021/12/19 05:18:06;;;;;;;23.77;13.80;;;;;;;;;;6242259;28;20071;-74
2021/12/19 05:21:15;;;;;;;32.03;14.63;;;;;;;;;;6244147;28;20258;-73
2021/12/19 05:24:43;;;;;;;32.80;18.77;;;;;;;;;;6244593;28;20048;-74
2021/12/19 05:27:42;;;;;;;30.52;14.63;;;;;;;;;;6243099;28;20076;-74
2021/12/19 05:30:42;;;;;;;28.70;16.13;;;;;;;;;;6243777;28;20068;-74
2021/12/19 05:33:43;;;;;;;32.83;19.27;;;;;;;;;;6243912;28;20367;-74
2021/12/19 05:46:40;;;;;;;23.45;12.95;;;;;;;;;;6235601;28;20064;-73
2021/12/19 05:49:40;;;;;;;30.40;17.52;;;;;;;;;;6243490;28;20481;-74
2021/12/19 05:52:41;;;;;;;27.92;15.10;;;;;;;;;;6244580;28;20070;-73
2021/12/19 05:55:41;;;;;;;25.60;14.57;;;;;;;;;;6243237;28;20104;-73
2021/12/19 05:58:41;;;;;;;36.30;16.30;;;;;;;;;;6242992;28;20701;-73
2021/12/19 06:01:43;;;;;;;33.03;16.52;;;;;;;;;;6241501;28;20053;-73
2021/12/19 06:04:43;;;;;;;34.73;19.93;;;;;;;;;;6241140;28;20075;-73
2021/12/19 06:07:43;;;;;;;19.58;12.07;;;;;;;;;;6236010;28;20032;-73
2021/12/19 06:10:44;;;;;;;26.10;14.82;;;;;;;;;;6242744;28;20509;-73
2021/12/19 06:13:44;;;;;;;21.88;13.57;;;;;;;;;;6235858;28;20106;-73
2021/12/19 06:16:44;;;;;;;29.98;16.15;;;;;;;;;;6218309;28;20018;-73
2021/12/19 06:19:45;;;;;;;29.15;15.05;;;;;;;;;;6257357;28;20038;-73
2021/12/19 06:22:45;;;;;;;32.63;16.30;;;;;;;;;;6243570;28;20071;-73
2021/12/19 06:25:46;;;;;;;31.48;17.30;;;;;;;;;;6242464;28;20076;-73
2021/12/19 06:28:46;;;;;;;28.60;16.30;;;;;;;;;;6242979;28;20029;-73
2021/12/19 06:31:46;;;;;;;20.70;11.65;;;;;;;;;;6242921;28;20045;-73
2021/12/19 06:34:46;;;;;;;20.58;12.18;;;;;;;;;;6240022;28;20022;-73
2021/12/19 06:37:47;;;;;;;20.67;13.23;;;;;;;;;;6239643;28;20029;-73
2021/12/19 06:40:48;;;;;;;19.40;11.00;;;;;;;;;;6240557;28;20105;-73
2021/12/19 06:43:48;;;;;;;18.77;9.98;;;;;;;;;;6242757;28;20021;-73
2021/12/19 06:46:49;;;;;;;26.80;9.65;;;;;;;;;;6242450;28;20029;-73
2021/12/19 06:49:49;;;;;;;15.07;8.15;;;;;;;;;;6247135;28;20484;-73
2021/12/19 06:52:49;;;;;;;19.50;8.57;;;;;;;;;;6247846;28;20381;-74
2021/12/19 06:55:50;;;;;;;19.52;9.90;;;;;;;;;;6247008;28;20069;-73
2021/12/19 06:58:50;;;;;;;19.85;10.68;;;;;;;;;;6247217;28;20018;-73
2021/12/19 07:01:50;;;;;;;15.48;8.77;;;;;;;;;;6247261;28;20021;-73
2021/12/19 07:04:51;;;;;;;18.55;9.88;;;;;;;;;;6245641;28;20411;-73
2021/12/19 07:07:51;;;;;;;33.40;18.33;;;;;;;;;;6246856;28;20450;-74
2021/12/19 07:10:51;;;;;;;15.18;10.23;;;;;;;;;;6246546;28;20045;-73
2021/12/19 07:13:53;;;;;;;19.58;12.73;;;;;;;;;;6247006;28;20395;-73
2021/12/19 07:16:53;;;;;;;24.95;11.93;;;;;;;;;;6241943;28;20080;-73
2021/12/19 07:19:53;;;;;;;12.05;6.82;;;;;;;;;;6245064;28;20027;-74
2021/12/19 07:22:53;;;;;;;13.32;8.23;;;;;;;;;;6234540;28;20021;-74
2021/12/19 07:25:54;;;;;;;17.85;8.43;;;;;;;;;;6242985;28;20087;-74
2021/12/19 07:28:54;;;;;;;18.13;10.82;;;;;;;;;;6246551;28;20056;-74
2021/12/19 07:31:54;;;;;;;16.63;12.82;;;;;;;;;;6243922;28;20013;-74
2021/12/19 07:34:54;;;;;;;28.48;13.77;;;;;;;;;;6246458;28;20053;-74
2021/12/19 07:37:55;;;;;;;17.15;8.30;;;;;;;;;;6243816;28;20457;-74
2021/12/19 07:40:58;;;;;;;17.65;9.00;;;;;;;;;;6237544;28;20029;-74
2021/12/19 07:43:58;;;;;;;20.75;10.05;;;;;;;;;;6246294;28;20037;-74
2021/12/19 07:46:58;;;;;;;18.40;8.23;;;;;;;;;;6245735;28;20417;-74
2021/12/19 07:49:59;;;;;;;19.73;12.10;;;;;;;;;;6242788;28;20027;-74
2021/12/19 07:53:01;;;;;;;28.70;12.27;;;;;;;;;;6239961;28;20032;-73
2021/12/19 07:56:01;;;;;;;23.55;12.05;;;;;;;;;;6240656;28;20010;-74
2021/12/19 07:59:02;;;;;;;20.85;11.13;;;;;;;;;;6241936;28;20568;-74
2021/12/19 08:02:04;;;;;;;24.90;10.20;;;;;;;;;;6243308;28;20033;-74
2021/12/19 08:05:04;;;;;;;23.75;13.88;;;;;;;;;;6237490;28;20122;-74
2021/12/19 08:08:05;;;;;;;19.23;13.27;;;;;;;;;;6244502;28;20151;-74
2021/12/19 08:14:24;;;;;;;22.00;10.25;;;;;;;;;;6244919;28;20037;-74
2021/12/19 08:17:25;;;;;;;31.10;14.35;;;;;;;;;;6234915;28;20385;-74
2021/12/19 08:20:26;;;;;;;19.85;9.70;;;;;;;;;;6241571;28;20018;-74
2021/12/19 08:23:27;;;;;;;15.32;9.23;;;;;;;;;;6237864;28;20045;-74
2021/12/19 08:26:28;;;;;;;26.88;15.23;;;;;;;;;;6244106;28;20029;-74
2021/12/19 08:29:28;;;;;;;12.35;7.95;;;;;;;;;;6239410;28;20059;-74
2021/12/19 08:32:28;;;;;;;18.15;7.82;;;;;;;;;;6238068;28;20026;-74
2021/12/19 08:35:29;;;;;;;16.42;8.10;;;;;;;;;;6232384;28;20021;-74
2021/12/19 08:38:29;;;;;;;16.55;7.82;;;;;;;;;;6241348;28;20018;-74
2021/12/19 08:41:29;;;;;;;19.73;10.02;;;;;;;;;;6231714;28;20503;-74
2021/12/19 08:44:29;;;;;;;15.13;5.80;;;;;;;;;;6233312;28;20672;-74
2021/12/19 08:47:30;;;;;;;30.90;13.05;;;;;;;;;;6234685;28;20033;-74
2021/12/19 08:50:30;;;;;;;19.83;11.73;;;;;;;;;;6242776;28;20017;-74
2021/12/19 08:53:31;;;;;;;13.43;7.50;;;;;;;;;;6242869;28;20013;-74
2021/12/19 08:56:31;;;;;;;32.75;18.77;;;;;;;;;;6243272;28;20044;-74
2021/12/19 08:59:32;;;;;;;71.10;41.20;;;;;;;;;;6242552;28;20075;-74
2021/12/19 09:02:32;;;;;;;53.30;24.52;;;;;;;;;;6243378;28;20477;-74
2021/12/19 09:05:32;;;;;;;22.45;16.88;;;;;;;;;;6240614;28;20025;-74
2021/12/19 09:08:33;;;;;;;29.83;12.90;;;;;;;;;;6255574;28;20030;-74
2021/12/19 09:11:33;;;;;;;28.95;15.35;;;;;;;;;;6241004;28;20041;-74
2021/12/19 09:14:33;;;;;;;23.10;9.88;;;;;;;;;;6242677;28;20515;-74
2021/12/19 09:17:34;;;;;;;23.02;14.02;;;;;;;;;;6242000;28;20068;-74
2021/12/19 09:20:34;;;;;;;22.60;12.27;;;;;;;;;;6240310;28;20029;-73
2021/12/19 09:23:34;;;;;;;108.03;54.88;;;;;;;;;;6242820;28;20670;-73
2021/12/19 09:26:34;;;;;;;51.17;24.25;;;;;;;;;;6238309;28;20025;-73
2021/12/19 09:29:35;;;;;;;79.43;38.28;;;;;;;;;;6240882;28;20156;-74
2021/12/19 09:32:35;;;;;;;44.72;23.00;;;;;;;;;;6239669;28;20373;-73
2021/12/19 09:35:36;;;;;;;62.50;30.95;;;;;;;;;;6241740;28;20064;-73
2021/12/19 09:38:37;;;;;;;93.70;45.85;;;;;;;;;;6240798;28;20025;-73
2021/12/19 09:41:43;;;;;;;48.65;21.77;;;;;;;;;;6241375;28;20029;-73
2021/12/19 09:44:43;;;;;;;35.00;20.80;;;;;;;;;;6241402;28;20485;-73
2021/12/19 09:47:44;;;;;;;18.02;11.32;;;;;;;;;;6233749;28;20061;-74
2021/12/19 09:50:44;;;;;;;29.88;15.50;;;;;;;;;;6228364;28;20044;-73
2021/12/19 09:53:45;;;;;;;26.60;10.38;;;;;;;;;;6221027;28;20033;-74
2021/12/19 09:56:45;;;;;;;17.10;8.40;;;;;;;;;;6215918;28;20037;-74
2021/12/19 09:59:46;;;;;;;33.70;15.80;;;;;;;;;;6218900;28;20021;-74
2021/12/19 10:02:46;;;;;;;21.42;10.55;;;;;;;;;;6222315;28;20048;-73
2021/12/19 10:05:46;;;;;;;42.80;19.85;;;;;;;;;;6224462;28;20393;-73
2021/12/19 10:08:49;;;;;;;17.80;8.90;;;;;;;;;;6219044;28;20030;-74
2021/12/19 10:14:53;;;;;;;26.73;15.35;;;;;;;;;;6242497;28;20033;-74
2021/12/19 10:18:04;;;;;;;16.63;7.82;;;;;;;;;;6229318;28;20048;-74
2021/12/19 10:21:04;;;;;;;17.83;9.95;;;;;;;;;;6223415;28;20032;-74
2021/12/19 10:24:06;;;;;;;19.80;9.35;;;;;;;;;;6225394;28;20116;-74
2021/12/19 10:27:06;;;;;;;16.92;7.60;;;;;;;;;;6226325;28;20160;-74
2021/12/19 10:30:09;;;;;;;18.48;11.48;;;;;;;;;;6224408;28;20478;-73
2021/12/19 10:33:14;;;;;;;18.10;8.45;;;;;;;;;;6222620;28;20022;-73
2021/12/19 10:36:16;;;;;;;13.88;6.63;;;;;;;;;;6222750;28;20026;-73
2021/12/19 10:39:19;;;;;;;12.75;6.57;;;;;;;;;;6240279;28;20021;-73
2021/12/19 10:42:21;;;;;;;13.60;7.03;;;;;;;;;;6243579;28;20040;-73
2021/12/19 10:45:30;;;;;;;;;;;;;;;;;;6241637;28;20025;-73
2021/12/19 10:48:32;;;;;;;13.32;6.22;;;;;;;;;;6230485;28;20365;-73
2021/12/19 10:51:38;;;;;;;19.17;10.02;;;;;;;;;;6221855;28;20099;-73
2021/12/19 10:54:55;;;;;;;21.83;11.38;;;;;;;;;;6222941;28;20022;-73
2021/12/19 10:57:56;;;;;;;10.60;5.53;;;;;;;;;;6220210;28;20132;-74
2021/12/19 11:01:03;;;;;;;21.15;8.40;;;;;;;;;;6219856;28;20057;-74
2021/12/19 11:04:16;;;;;;;11.32;6.13;;;;;;;;;;6220606;28;20057;-74
2021/12/19 11:07:21;;;;;;;7.47;4.13;;;;;;;;;;6220742;28;20017;-74
2021/12/19 11:10:25;;;;;;;10.15;4.68;;;;;;;;;;6229308;28;20049;-73
2021/12/19 11:13:26;;;;;;;22.52;11.50;;;;;;;;;;6246967;28;20556;-73
2021/12/19 11:16:26;;;;;;;22.90;12.10;;;;;;;;;;6245778;28;20060;-73
2021/12/19 11:19:27;;;;;;;14.85;6.72;;;;;;;;;;6227591;28;20374;-73
2021/12/19 11:22:28;;;;;;;19.55;10.65;;;;;;;;;;6231111;28;20033;-73
2021/12/19 11:25:28;;;;;;;16.33;8.70;;;;;;;;;;6227703;28;20064;-73
2021/12/19 11:28:29;;;;;;;10.00;5.88;;;;;;;;;;6246228;28;20083;-73
2021/12/19 11:31:31;;;;;;;14.60;7.18;;;;;;;;;;6246315;28;20112;-73
2021/12/19 11:34:40;;;;;;;12.70;8.27;;;;;;;;;;6244737;28;20029;-73
2021/12/19 11:37:45;;;;;;;12.57;6.53;;;;;;;;;;6225934;28;20489;-73
2021/12/19 11:40:46;;;;;;;16.48;8.05;;;;;;;;;;6239631;28;20018;-73
2021/12/19 11:43:49;;;;;;;17.38;8.52;;;;;;;;;;6239611;28;20032;-72
2021/12/19 11:46:53;;;;;;;20.92;12.05;;;;;;;;;;6232416;28;20033;-72
2021/12/19 11:50:09;;;;;;;21.45;11.40;;;;;;;;;;6244623;28;20029;-72
2021/12/19 11:53:09;;;;;;;17.88;9.15;;;;;;;;;;6246636;28;20029;-72
2021/12/19 11:56:16;;;;;;;109.60;50.87;;;;;;;;;;6241797;28;20505;-72
2021/12/19 11:59:18;;;;;;;18.15;9.77;;;;;;;;;;6220773;28;20260;-72
2021/12/19 12:02:25;;;;;;;14.60;8.40;;;;;;;;;;6227586;28;20385;-72
2021/12/19 12:05:25;;;;;;;22.25;15.13;;;;;;;;;;6236387;28;20033;-72
2021/12/19 12:08:27;;;;;;;13.85;10.35;;;;;;;;;;6232732;28;20022;-72
2021/12/19 12:11:27;;;;;;;17.77;10.52;;;;;;;;;;6240694;28;20054;-73
2021/12/19 12:14:31;;;;;;;12.63;7.55;;;;;;;;;;6222320;28;20582;-73
2021/12/19 12:17:36;;;;;;;20.08;10.77;;;;;;;;;;6226614;28;20119;-73
2021/12/19 12:20:38;;;;;;;16.67;10.45;;;;;;;;;;6242384;28;20021;-73
2021/12/19 12:23:50;;;;;;;23.65;11.73;;;;;;;;;;6243566;28;20025;-73
2021/12/19 12:26:59;;;;;;;15.52;9.52;;;;;;;;;;6242635;28;20026;-73
2021/12/19 12:29:59;;;;;;;16.75;9.00;;;;;;;;;;6243004;28;20067;-73
2021/12/19 12:33:01;;;;;;;13.77;8.07;;;;;;;;;;6241697;28;20120;-73
2021/12/19 12:36:02;;;;;;;17.25;9.55;;;;;;;;;;6244103;28;20017;-73
2021/12/19 12:39:07;;;;;;;13.60;4.82;;;;;;;;;;6244265;28;20562;-73
2021/12/19 12:42:11;;;;;;;13.00;6.25;;;;;;;;;;6244811;28;20025;-73
2021/12/19 12:45:11;;;;;;;18.42;7.05;;;;;;;;;;6242682;28;20029;-73
2021/12/19 12:48:11;;;;;;;9.85;5.25;;;;;;;;;;6244504;28;20047;-73
2021/12/19 12:51:13;;;;;;;55.70;23.83;;;;;;;;;;6244581;28;20044;-73
2021/12/19 12:54:16;;;;;;;16.15;9.48;;;;;;;;;;6243955;28;20021;-73
2021/12/19 12:57:16;;;;;;;15.55;6.35;;;;;;;;;;6244224;28;20032;-73
2021/12/19 13:00:18;;;;;;;17.58;8.98;;;;;;;;;;6244353;28;20022;-73
2021/12/19 13:03:28;;;;;;;11.17;5.87;;;;;;;;;;6243159;28;20030;-73
2021/12/19 13:06:39;;;;;;;12.23;6.18;;;;;;;;;;6244418;28;20259;-73
2021/12/19 13:09:50;;;;;;;24.90;12.27;;;;;;;;;;6243710;28;20053;-73
2021/12/19 13:12:50;;;;;;;22.75;10.52;;;;;;;;;;6219788;28;20045;-73
2021/12/19 13:15:50;;;;;;;26.52;13.07;;;;;;;;;;6219637;28;20021;-73
2021/12/19 13:18:53;;;;;;;21.45;12.25;;;;;;;;;;6235598;28;20020;-73
2021/12/19 13:21:53;;;;;;;;;;;;;;;;;;6244856;28;20022;-73
2021/12/19 13:24:55;;;;;;;13.88;7.65;;;;;;;;;;6242678;28;20266;-73
2021/12/19 13:27:57;;;;;;;16.75;8.27;;;;;;;;;;6243464;28;20393;-73
2021/12/19 13:30:58;;;;;;;13.73;5.90;;;;;;;;;;6242837;28;20025;-73
2021/12/19 13:33:58;;;;;;;20.08;9.82;;;;;;;;;;6242467;28;20466;-73
2021/12/19 13:37:02;;;;;;;28.17;16.05;;;;;;;;;;6243769;28;20026;-73
2021/12/19 13:40:12;;;;;;;26.75;12.95;;;;;;;;;;6241690;28;20028;-73
2021/12/19 13:43:13;;;;;;;13.48;7.10;;;;;;;;;;6243419;28;20473;-73
2021/12/19 13:46:14;;;;;;;13.00;8.00;;;;;;;;;;6242276;28;20104;-73
2021/12/19 13:49:15;;;;;;;17.55;8.20;;;;;;;;;;6243131;28;20047;-73
2021/12/19 13:52:15;;;;;;;16.35;6.97;;;;;;;;;;6240854;28;20389;-73
2021/12/19 13:55:16;;;;;;;7.13;5.20;;;;;;;;;;6237083;28;20114;-73
2021/12/19 13:58:17;;;;;;;10.93;5.87;;;;;;;;;;6222211;28;20040;-73
2021/12/19 14:01:27;;;;;;;20.43;11.37;;;;;;;;;;6216942;28;20017;-73
2021/12/19 14:04:30;;;;;;;54.75;25.77;;;;;;;;;;6215443;28;20033;-73
2021/12/19 14:07:31;;;;;;;30.50;15.93;;;;;;;;;;6218306;28;20462;-73
2021/12/19 14:10:44;;;;;;;25.33;15.38;;;;;;;;;;6240367;28;20079;-73
2021/12/19 14:14:01;;;;;;;27.92;14.02;;;;;;;;;;6218002;28;20501;-73
2021/12/19 14:17:24;;;;;;;45.15;22.67;;;;;;;;;;6226800;28;20014;-73
2021/12/19 14:20:36;;;;;;;39.80;20.33;;;;;;;;;;6230038;28;20425;-73
2021/12/19 14:23:37;;;;;;;;;;;;;;;;;;6226372;28;20029;-73
2021/12/19 14:26:38;;;;;;;57.33;23.92;;;;;;;;;;6233398;28;19951;-73
2021/12/19 14:29:41;;;;;;;28.43;11.53;;;;;;;;;;6232051;28;20034;-73
2021/12/19 14:32:45;;;;;;;29.58;12.23;;;;;;;;;;6218490;28;20021;-73
2021/12/19 14:35:50;;;;;;;20.85;8.90;;;;;;;;;;6233740;28;20014;-73
2021/12/19 14:38:58;;;;;;;35.28;15.13;;;;;;;;;;6233958;28;20076;-73
2021/12/19 14:42:25;;;;;;;26.80;10.27;;;;;;;;;;6241489;28;20109;-73
2021/12/19 14:45:27;;;;;;;43.33;16.65;;;;;;;;;;6238640;28;20037;-73
2021/12/19 14:48:27;;;;;;;37.38;16.83;;;;;;;;;;6241104;28;20029;-73
2021/12/19 14:51:29;;;;;;;29.55;12.90;;;;;;;;;;6242375;28;20085;-73
2021/12/19 14:54:29;;;;;;;36.70;17.60;;;;;;;;;;6242437;28;20029;-73
2021/12/19 14:57:29;;;;;;;29.90;17.13;;;;;;;;;;6233487;28;20080;-73
2021/12/19 15:00:31;;;;;;;22.85;11.45;;;;;;;;;;6231135;28;20097;-73
2021/12/19 15:03:32;;;;;;;23.75;10.73;;;;;;;;;;6226237;28;20026;-73
2021/12/19 15:06:37;;;;;;;23.52;12.13;;;;;;;;;;6217368;28;20037;-73
2021/12/19 15:09:37;;;;;;;15.00;9.45;;;;;;;;;;6220481;28;20293;-73
2021/12/19 15:12:37;;;;;;;18.42;9.75;;;;;;;;;;6220525;28;20386;-73
2021/12/19 15:15:38;;;;;;;17.70;9.00;;;;;;;;;;6216087;28;20105;-73
2021/12/19 15:18:39;;;;;;;14.52;7.90;;;;;;;;;;6219029;28;20022;-73
2021/12/19 15:21:39;;;;;;;15.48;8.48;;;;;;;;;;6217222;28;20419;-73
2021/12/19 15:24:39;;;;;;;32.67;15.40;;;;;;;;;;6221604;28;20033;-73
2021/12/19 15:27:42;;;;;;;20.63;9.38;;;;;;;;;;6219243;28;20022;-73
2021/12/19 15:30:43;;;;;;;22.88;10.32;;;;;;;;;;6219892;28;20088;-74
2021/12/19 15:33:43;;;;;;;23.85;10.88;;;;;;;;;;6222710;28;20351;-74
2021/12/19 15:36:44;;;;;;;26.02;12.35;;;;;;;;;;6220843;28;20037;-74
2021/12/19 15:39:44;;;;;;;21.70;11.50;;;;;;;;;;6219551;28;20010;-74
2021/12/19 15:42:44;;;;;;;23.90;13.10;;;;;;;;;;6222554;28;20037;-74
2021/12/19 15:45:45;;;;;;;19.88;8.98;;;;;;;;;;6222750;28;20050;-73
2021/12/19 15:48:45;;;;;;;33.33;14.00;;;;;;;;;;6223681;28;20527;-73
2021/12/19 15:51:45;;;;;;;22.17;10.80;;;;;;;;;;6240877;28;20025;-73
2021/12/19 15:54:46;;;;;;;18.85;8.80;;;;;;;;;;6246633;28;20404;-73
2021/12/19 15:57:46;;;;;;;24.55;11.05;;;;;;;;;;6246468;28;20407;-73
2021/12/19 16:00:46;;;;;;;20.05;9.73;;;;;;;;;;6244758;28;20494;-73
2021/12/19 16:03:48;;;;;;;17.63;8.20;;;;;;;;;;6246167;28;20038;-73
2021/12/19 16:06:48;;;;;;;31.73;14.17;;;;;;;;;;6245955;28;20021;-73
2021/12/19 16:09:48;;;;;;;39.33;17.63;;;;;;;;;;6239382;28;20775;-73
2021/12/19 16:12:49;;;;;;;30.73;12.02;;;;;;;;;;6220507;28;20025;-73
2021/12/19 16:15:49;;;;;;;25.42;11.88;;;;;;;;;;6219912;28;20500;-73
2021/12/19 16:18:50;;;;;;;15.02;6.85;;;;;;;;;;6236833;28;20084;-73
2021/12/19 16:21:50;;;;;;;16.05;8.85;;;;;;;;;;6242853;28;20512;-73
2021/12/19 16:24:50;;;;;;;20.33;9.38;;;;;;;;;;6243973;28;20102;-74
2021/12/19 16:27:50;;;;;;;14.05;5.28;;;;;;;;;;6245555;28;20017;-74
2021/12/19 16:30:51;;;;;;;25.60;11.73;;;;;;;;;;6245324;28;20025;-74
2021/12/19 16:33:51;;;;;;;17.48;8.55;;;;;;;;;;6243838;28;20067;-74
2021/12/19 16:36:51;;;;;;;19.73;7.78;;;;;;;;;;6245428;28;20029;-74
2021/12/19 16:39:54;;;;;;;12.35;6.57;;;;;;;;;;6235732;28;20049;-73
2021/12/19 16:46:13;;;;;;;18.02;7.53;;;;;;;;;;6219213;28;20369;-73
2021/12/19 16:49:14;;;;;;;11.70;5.63;;;;;;;;;;6231551;28;20071;-73
2021/12/19 16:52:14;;;;;;;12.15;4.35;;;;;;;;;;6232422;28;20029;-73
2021/12/19 16:55:15;;;;;;;14.80;7.43;;;;;;;;;;6242332;28;20168;-73
2021/12/19 16:58:15;;;;;;;10.98;4.32;;;;;;;;;;6244755;28;20021;-73
2021/12/19 17:01:15;;;;;;;18.63;9.27;;;;;;;;;;6244215;28;20099;-73
2021/12/19 17:04:16;;;;;;;16.55;8.05;;;;;;;;;;6251435;28;20474;-73
2021/12/19 17:07:16;;;;;;;12.23;5.50;;;;;;;;;;6226409;28;20489;-73
2021/12/19 17:10:17;;;;;;;14.45;6.60;;;;;;;;;;6233053;28;20089;-73
2021/12/19 17:13:28;;;;;;;34.67;11.27;;;;;;;;;;6221740;28;20041;-73
2021/12/19 17:16:28;;;;;;;69.68;25.98;;;;;;;;;;6221414;28;20018;-73
2021/12/19 17:19:29;;;;;;;24.58;13.25;;;;;;;;;;6234332;28;20457;-73
2021/12/19 17:22:29;;;;;;;9.48;6.55;;;;;;;;;;6225659;28;20386;-73
2021/12/19 17:25:29;;;;;;;17.05;9.07;;;;;;;;;;6243104;28;20124;-73
2021/12/19 17:28:30;;;;;;;13.45;7.20;;;;;;;;;;6244208;28;20480;-73
2021/12/19 17:31:31;;;;;;;14.88;7.57;;;;;;;;;;6229432;28;20022;-74
2021/12/19 17:34:31;;;;;;;14.23;7.90;;;;;;;;;;6216347;28;20026;-73
2021/12/19 17:37:34;;;;;;;17.10;8.05;;;;;;;;;;6218817;28;20022;-73
2021/12/19 17:43:37;;;;;;;18.52;9.85;;;;;;;;;;6228367;28;20096;-73
2021/12/19 17:46:37;;;;;;;42.50;19.45;;;;;;;;;;6242333;28;20481;-73
2021/12/19 17:49:38;;;;;;;28.20;14.20;;;;;;;;;;6219616;28;20481;-74
2021/12/19 17:52:39;;;;;;;15.07;8.23;;;;;;;;;;6239860;28;20104;-74
2021/12/19 17:55:39;;;;;;;14.15;8.25;;;;;;;;;;6233266;28;20156;-74
2021/12/19 17:58:40;;;;;;;14.50;7.38;;;;;;;;;;6224262;28;20040;-73
2021/12/19 18:01:41;;;;;;;15.43;6.82;;;;;;;;;;6242438;28;20032;-73
2021/12/19 18:04:43;;;;;;;20.30;9.25;;;;;;;;;;6241900;28;20072;-73
2021/12/19 18:07:44;;;;;;;29.80;14.18;;;;;;;;;;6218917;28;20018;-73
2021/12/19 18:10:44;;;;;;;21.63;11.80;;;;;;;;;;6228586;28;20087;-73
2021/12/19 18:13:47;;;;;;;12.77;6.38;;;;;;;;;;6242751;28;20048;-73
2021/12/19 18:16:48;;;;;;;14.30;7.47;;;;;;;;;;6242528;28;20462;-74
2021/12/19 18:19:48;;;;;;;17.77;9.52;;;;;;;;;;6257247;28;20013;-74
2021/12/19 18:22:50;;;;;;;23.67;11.10;;;;;;;;;;6242857;28;20071;-74
2021/12/19 18:25:52;;;;;;;39.85;22.10;;;;;;;;;;6242210;28;20045;-74
2021/12/19 18:28:56;;;;;;;31.60;19.55;;;;;;;;;;6242149;28;20021;-74
2021/12/19 18:31:56;;;;;;;22.77;13.70;;;;;;;;;;6238035;28;20063;-74
2021/12/19 18:34:59;;;;;;;25.00;13.55;;;;;;;;;;6221540;28;20529;-74
2021/12/19 18:38:04;;;;;;;14.32;7.60;;;;;;;;;;6216134;28;20018;-74
2021/12/19 18:41:13;;;;;;;10.07;4.43;;;;;;;;;;6219534;28;20097;-73
2021/12/19 18:44:20;;;;;;;3.08;1.63;;;;;;;;;;6231172;28;20465;-73
2021/12/19 18:56:28;;;;;;;19.08;17.27;;;;;;;;;;6230959;28;20394;-73
2021/12/19 18:59:28;;;;;;;6.10;5.47;;;;;;;;;;6229648;28;20075;-73
2021/12/19 19:02:40;;;;;;;27.10;24.45;;;;;;;;;;6242070;28;20071;-73
2021/12/19 19:05:43;;;;;;;10.60;4.05;;;;;;;;;;6246830;28;20231;-73
2021/12/19 19:08:44;;;;;;;7.75;4.38;;;;;;;;;;6262992;28;20485;-73
2021/12/19 19:11:44;;;;;;;23.50;20.83;;;;;;;;;;6255451;28;20056;-73
2021/12/19 19:14:47;;;;;;;10.25;4.55;;;;;;;;;;6246987;28;20081;-73